createdAt,value
2017-10-30T00:01:15.992Z,5.87
2017-10-30T00:04:41.608Z,6.90
2017-10-30T00:08:09.252Z,3.90
2017-10-30T00:11:35.932Z,3.43
2017-10-30T00:15:01.843Z,7.23
2017-10-30T00:18:28.521Z,5.07
2017-10-30T00:21:53.841Z,7.37
2017-10-30T00:25:19.348Z,5.67
2017-10-30T00:28:52.202Z,8.40
2017-10-30T00:32:18.374Z,4.77
2017-10-30T00:35:44.533Z,7.63
2017-10-30T00:39:11.605Z,5.17
2017-10-30T00:42:38.694Z,4.20
2017-10-30T00:46:05.187Z,5.40
2017-10-30T00:49:33.064Z,5.60
2017-10-30T00:52:58.415Z,3.80
2017-10-30T00:56:24.174Z,3.07
2017-10-30T00:59:50.359Z,4.77
2017-10-30T01:03:20.322Z,3.10
2017-10-30T01:06:47.584Z,4.67
2017-10-30T01:10:13.319Z,3.80
2017-10-30T01:13:39.124Z,6.67
2017-10-30T01:17:12.818Z,4.20
2017-10-30T01:20:38.936Z,5.37
2017-10-30T01:24:04.780Z,2.37
2017-10-30T01:27:30.410Z,3.33
2017-10-30T01:30:55.741Z,3.87
2017-10-30T01:34:21.062Z,4.37
2017-10-30T01:37:46.806Z,4.50
2017-10-30T01:41:12.121Z,6.30
2017-10-30T01:44:37.950Z,3.77
2017-10-30T01:48:03.697Z,4.50
2017-10-30T01:51:29.801Z,3.60
2017-10-30T01:54:55.115Z,5.37
2017-10-30T01:58:20.797Z,4.27
2017-10-30T02:01:46.093Z,4.00
2017-10-30T02:05:11.374Z,3.37
2017-10-30T02:08:38.064Z,6.47
2017-10-30T02:12:03.525Z,3.43
2017-10-30T02:15:28.893Z,7.43
2017-10-30T02:18:54.856Z,3.70
2017-10-30T02:22:21.412Z,4.47
2017-10-30T02:25:47.816Z,6.47
2017-10-30T02:29:15.531Z,4.43
2017-10-30T02:32:41.749Z,6.43
2017-10-30T02:36:07.490Z,4.03
2017-10-30T02:39:34.185Z,6.40
2017-10-30T02:43:00.943Z,6.30
2017-10-30T02:46:26.748Z,5.10
2017-10-30T02:49:53.530Z,3.70
2017-10-30T02:53:18.920Z,5.63
2017-10-30T02:56:44.240Z,3.10
2017-10-30T03:00:10.360Z,5.57
2017-10-30T03:03:35.846Z,5.10
2017-10-30T03:07:17.279Z,3.23
2017-10-30T03:10:43.025Z,4.00
2017-10-30T03:14:08.517Z,7.50
2017-10-30T03:17:36.417Z,3.93
2017-10-30T03:21:02.940Z,4.70
2017-10-30T03:24:29.271Z,3.83
2017-10-30T03:27:55.737Z,5.10
2017-10-30T03:31:21.308Z,6.83
2017-10-30T03:34:47.982Z,4.63
2017-10-30T03:38:16.926Z,3.70
2017-10-30T03:41:42.496Z,3.83
2017-10-30T03:45:08.370Z,3.93
2017-10-30T03:48:41.596Z,4.50
2017-10-30T03:52:07.147Z,7.30
2017-10-30T03:55:32.713Z,3.33
2017-10-30T03:58:58.199Z,6.30
2017-10-30T04:02:23.652Z,6.63
2017-10-30T04:05:49.098Z,4.73
2017-10-30T04:09:15.701Z,4.83
2017-10-30T04:12:44.859Z,6.03
2017-10-30T04:16:12.133Z,8.67
2017-10-30T04:19:44.161Z,3.70
2017-10-30T04:23:11.338Z,4.00
2017-10-30T04:26:36.628Z,3.80
2017-10-30T04:30:02.145Z,6.50
2017-10-30T04:33:28.424Z,5.30
2017-10-30T04:36:53.724Z,4.73
2017-10-30T04:40:19.044Z,3.50
2017-10-30T04:43:44.370Z,6.90
2017-10-30T04:47:09.803Z,8.13
2017-10-30T04:50:35.381Z,3.23
2017-10-30T04:54:00.699Z,6.17
2017-10-30T04:57:26.970Z,3.87
2017-10-30T05:00:52.712Z,4.63
2017-10-30T05:04:18.582Z,5.33
2017-10-30T05:07:44.158Z,3.90
2017-10-30T05:11:09.640Z,5.03
2017-10-30T05:14:35.001Z,3.10
2017-10-30T05:18:00.510Z,4.63
2017-10-30T05:21:25.842Z,4.33
2017-10-30T05:24:52.213Z,4.20
2017-10-30T05:28:18.222Z,3.30
2017-10-30T05:31:43.770Z,3.70
2017-10-30T05:35:10.233Z,5.93
2017-10-30T05:38:35.592Z,2.53
2017-10-30T05:42:01.561Z,2.87
2017-10-30T05:45:27.562Z,3.83
2017-10-30T05:48:52.967Z,3.03
2017-10-30T05:52:18.292Z,3.80
2017-10-30T05:55:44.406Z,3.80
2017-10-30T05:59:09.743Z,4.27
2017-10-30T06:02:35.774Z,3.23
2017-10-30T06:06:01.369Z,2.60
2017-10-30T06:09:26.699Z,2.70
2017-10-30T06:12:52.108Z,3.23
2017-10-30T06:16:17.786Z,10.03
2017-10-30T06:19:43.749Z,2.30
2017-10-30T06:23:09.929Z,2.70
2017-10-30T06:26:35.643Z,3.83
2017-10-30T06:30:00.964Z,5.80
2017-10-30T06:33:26.420Z,3.70
2017-10-30T06:36:51.732Z,5.40
2017-10-30T06:40:18.492Z,3.73
2017-10-30T06:43:47.543Z,5.87
2017-10-30T06:47:15.177Z,6.80
2017-10-30T06:50:41.082Z,10.87
2017-10-30T06:54:06.512Z,6.93
2017-10-30T06:57:33.266Z,8.10
2017-10-30T07:00:58.665Z,8.80
2017-10-30T07:04:24.327Z,7.13
2017-10-30T07:07:49.621Z,14.53
2017-10-30T07:11:14.929Z,7.43
2017-10-30T07:14:40.480Z,11.13
2017-10-30T07:18:06.344Z,7.67
2017-10-30T07:21:32.707Z,13.07
2017-10-30T07:24:58.834Z,12.57
2017-10-30T07:28:24.701Z,10.20
2017-10-30T07:31:50.488Z,6.73
2017-10-30T07:35:16.067Z,8.60
2017-10-30T07:38:41.430Z,12.40
2017-10-30T07:42:06.869Z,11.30
2017-10-30T07:45:32.557Z,16.63
2017-10-30T07:48:58.653Z,6.30
2017-10-30T07:52:23.980Z,9.30
2017-10-30T07:55:49.559Z,7.60
2017-10-30T07:59:15.696Z,9.57
2017-10-30T08:02:41.184Z,14.47
2017-10-30T08:06:07.387Z,12.83
2017-10-30T08:09:32.837Z,18.93
2017-10-30T08:12:58.301Z,9.97
2017-10-30T08:16:23.873Z,13.27
2017-10-30T08:19:49.492Z,14.83
2017-10-30T08:23:15.112Z,8.43
2017-10-30T08:26:40.504Z,10.37
2017-10-30T08:30:05.977Z,11.13
2017-10-30T08:33:33.141Z,9.70
2017-10-30T08:37:01.275Z,7.87
2017-10-30T08:40:26.830Z,7.50
2017-10-30T08:43:53.064Z,5.37
2017-10-30T08:47:18.712Z,11.43
2017-10-30T08:50:44.246Z,10.57
2017-10-30T08:54:09.632Z,8.57
2017-10-30T08:57:35.766Z,7.77
2017-10-30T09:01:02.770Z,7.10
2017-10-30T09:04:29.135Z,8.70
2017-10-30T09:07:54.628Z,8.93
2017-10-30T09:11:20.758Z,7.40
2017-10-30T09:14:47.336Z,5.93
2017-10-30T09:18:14.237Z,7.03
2017-10-30T09:21:40.092Z,6.70
2017-10-30T09:25:06.069Z,5.80
2017-10-30T09:28:31.642Z,6.53
2017-10-30T09:31:57.139Z,9.13
2017-10-30T09:35:23.704Z,3.50
2017-10-30T09:38:50.488Z,3.47
2017-10-30T09:42:15.925Z,5.10
2017-10-30T09:45:41.363Z,5.00
2017-10-30T09:49:07.392Z,6.30
2017-10-30T09:52:33.005Z,6.27
2017-10-30T09:55:58.376Z,6.70
2017-10-30T09:59:26.643Z,4.73
2017-10-30T10:02:53.777Z,6.37
2017-10-30T10:06:19.237Z,7.47
2017-10-30T10:09:44.798Z,4.90
2017-10-30T10:13:10.433Z,3.57
2017-10-30T10:16:36.877Z,4.07
2017-10-30T10:20:02.571Z,4.00
2017-10-30T10:23:27.988Z,3.83
2017-10-30T10:26:53.380Z,3.37
2017-10-30T10:30:20.282Z,6.77
2017-10-30T10:33:46.603Z,2.80
2017-10-30T10:37:16.714Z,5.70
2017-10-30T10:40:43.536Z,3.87
2017-10-30T10:44:10.449Z,3.33
2017-10-30T10:47:36.257Z,4.93
2017-10-30T10:51:01.629Z,3.77
2017-10-30T10:54:31.749Z,3.23
2017-10-30T10:57:58.339Z,3.73
2017-10-30T11:01:24.656Z,2.33
2017-10-30T11:04:52.383Z,4.60
2017-10-30T11:08:21.463Z,4.70
2017-10-30T11:11:57.850Z,3.10
2017-10-30T11:15:27.190Z,5.07
2017-10-30T11:18:56.922Z,3.20
2017-10-30T11:22:23.136Z,2.30
2017-10-30T11:25:50.185Z,3.90
2017-10-30T11:29:23.133Z,6.50
2017-10-30T11:32:48.476Z,3.03
2017-10-30T11:36:14.360Z,2.23
2017-10-30T11:39:39.613Z,3.77
2017-10-30T11:43:07.091Z,3.30
2017-10-30T11:46:40.172Z,4.23
2017-10-30T11:50:06.753Z,4.20
2017-10-30T11:53:38.750Z,3.90
2017-10-30T11:57:05.609Z,2.33
2017-10-30T12:00:43.585Z,2.40
2017-10-30T12:04:14.373Z,4.20
2017-10-30T12:07:39.869Z,3.60
2017-10-30T12:11:05.295Z,1.73
2017-10-30T12:14:33.353Z,2.57
2017-10-30T12:17:59.048Z,2.60
2017-10-30T12:21:24.366Z,2.30
2017-10-30T12:24:54.006Z,2.17
2017-10-30T12:28:20.957Z,2.73
2017-10-30T12:31:46.309Z,1.40
2017-10-30T12:35:12.809Z,2.33
2017-10-30T12:38:45.218Z,3.40
2017-10-30T12:42:20.018Z,1.67
2017-10-30T12:45:55.920Z,3.57
2017-10-30T12:49:22.416Z,4.10
2017-10-30T12:52:52.964Z,4.07
2017-10-30T12:56:26.552Z,5.20
2017-10-30T12:59:54.459Z,3.30
2017-10-30T13:03:20.762Z,2.20
2017-10-30T13:06:47.148Z,2.97
2017-10-30T13:10:13.812Z,2.90
2017-10-30T13:13:39.325Z,3.13
2017-10-30T13:17:04.748Z,3.50
2017-10-30T13:20:32.970Z,2.63
2017-10-30T13:23:58.725Z,4.43
2017-10-30T13:27:26.026Z,3.43
2017-10-30T13:30:51.247Z,4.40
2017-10-30T13:34:16.494Z,2.57
2017-10-30T13:37:41.874Z,2.70
2017-10-30T13:41:07.153Z,4.30
2017-10-30T13:44:32.455Z,2.00
2017-10-30T13:47:58.156Z,1.80
2017-10-30T13:51:23.456Z,1.53
2017-10-30T13:54:48.993Z,2.47
2017-10-30T13:58:14.287Z,1.97
2017-10-30T14:01:39.677Z,2.60
2017-10-30T14:05:06.784Z,5.10
2017-10-30T14:08:32.369Z,1.80
2017-10-30T14:11:59.127Z,3.40
2017-10-30T14:15:25.733Z,2.93
2017-10-30T14:18:51.366Z,2.30
2017-10-30T14:22:28.507Z,2.63
2017-10-30T14:25:54.808Z,2.87
2017-10-30T14:29:20.443Z,3.00
2017-10-30T14:32:46.378Z,2.37
2017-10-30T14:36:11.830Z,2.60
2017-10-30T14:39:37.695Z,3.27
2017-10-30T14:43:04.456Z,2.97
2017-10-30T14:46:30.298Z,2.20
2017-10-30T14:49:55.794Z,2.60
2017-10-30T14:53:21.277Z,2.67
2017-10-30T14:56:46.956Z,2.37
2017-10-30T15:00:20.010Z,2.83
2017-10-30T15:03:49.836Z,2.37
2017-10-30T15:07:16.902Z,2.50
2017-10-30T15:10:42.556Z,3.40
2017-10-30T15:14:15.078Z,2.07
2017-10-30T15:17:42.859Z,2.13
2017-10-30T15:21:10.295Z,1.90
2017-10-30T15:24:40.652Z,3.90
2017-10-30T15:28:09.180Z,3.20
2017-10-30T15:31:36.029Z,2.87
2017-10-30T15:35:01.623Z,1.47
2017-10-30T15:38:32.209Z,2.73
2017-10-30T15:42:03.329Z,3.53
2017-10-30T15:45:34.261Z,2.60
2017-10-30T15:49:08.745Z,5.13
2017-10-30T15:52:44.104Z,3.90
2017-10-30T15:56:18.692Z,2.50
2017-10-30T15:59:53.121Z,2.07
2017-10-30T16:03:28.153Z,3.37
2017-10-30T16:07:01.961Z,3.97
2017-10-30T16:10:33.425Z,2.60
2017-10-30T16:14:07.196Z,4.30
2017-10-30T16:17:42.285Z,2.00
2017-10-30T16:21:19.950Z,2.30
2017-10-30T16:24:59.631Z,1.47
2017-10-30T16:28:38.341Z,2.33
2017-10-30T16:32:13.753Z,2.20
2017-10-30T16:35:43.366Z,1.20
2017-10-30T16:39:17.497Z,2.77
2017-10-30T16:42:46.520Z,1.50
2017-10-30T16:46:19.100Z,2.27
2017-10-30T16:49:50.948Z,2.60
2017-10-30T16:53:17.141Z,1.70
2017-10-30T16:56:43.577Z,1.63
2017-10-30T17:00:12.829Z,1.40
2017-10-30T17:03:39.986Z,1.13
2017-10-30T17:07:05.977Z,3.63
2017-10-30T17:10:32.962Z,1.70
2017-10-30T17:13:58.649Z,2.13
2017-10-30T17:17:24.062Z,3.23
2017-10-30T17:20:49.410Z,2.30
2017-10-30T17:24:15.517Z,5.13
2017-10-30T17:27:40.977Z,4.03
2017-10-30T17:31:06.557Z,2.67
2017-10-30T17:34:32.421Z,1.40
2017-10-30T17:37:58.835Z,2.60
2017-10-30T17:41:26.114Z,1.80
2017-10-30T17:44:52.728Z,2.13
2017-10-30T17:48:18.630Z,7.03
2017-10-30T17:51:57.078Z,2.30
2017-10-30T17:55:32.814Z,4.30
2017-10-30T17:59:09.509Z,2.67
2017-10-30T18:02:46.084Z,2.23
2017-10-30T18:06:22.064Z,2.47
2017-10-30T18:09:49.035Z,2.53
2017-10-30T18:13:14.417Z,2.37
2017-10-30T18:16:56.104Z,2.27
2017-10-30T18:20:34.804Z,2.73
2017-10-30T18:24:10.974Z,3.33
2017-10-30T18:27:43.247Z,3.50
2017-10-30T18:31:32.498Z,1.93
2017-10-30T18:35:01.279Z,2.17
2017-10-30T18:38:27.068Z,2.77
2017-10-30T18:41:57.421Z,2.10
2017-10-30T18:45:24.633Z,3.83
2017-10-30T18:48:49.997Z,4.40
2017-10-30T18:52:22.043Z,5.50
2017-10-30T18:55:49.443Z,7.67
2017-10-30T18:59:15.061Z,6.90
2017-10-30T19:02:46.926Z,5.00
2017-10-30T19:06:13.746Z,7.30
2017-10-30T19:09:48.324Z,8.87
2017-10-30T19:13:23.134Z,6.13
2017-10-30T19:16:53.689Z,6.10
2017-10-30T19:20:20.306Z,7.90
2017-10-30T19:23:53.825Z,8.70
2017-10-30T19:27:25.572Z,5.93
2017-10-30T19:30:51.533Z,7.87
2017-10-30T19:34:17.965Z,12.27
2017-10-30T19:37:44.719Z,7.73
2017-10-30T19:41:11.591Z,8.47
2017-10-30T19:44:42.666Z,8.50
2017-10-30T19:48:18.741Z,6.60
2017-10-30T19:51:44.347Z,9.60
2017-10-30T19:55:10.940Z,6.53
2017-10-30T19:58:42.297Z,5.67
2017-10-30T20:02:08.497Z,6.80
2017-10-30T20:05:38.590Z,11.50
2017-10-30T20:09:10.242Z,7.00
2017-10-30T20:12:37.054Z,9.27
2017-10-30T20:16:03.665Z,7.77
2017-10-30T20:19:29.082Z,7.70
2017-10-30T20:22:54.466Z,9.07
2017-10-30T20:26:20.673Z,8.47
2017-10-30T20:29:53.365Z,10.30
2017-10-30T20:33:25.483Z,9.83
2017-10-30T20:37:00.623Z,7.97
2017-10-30T20:40:34.963Z,7.10
2017-10-30T20:44:09.659Z,9.27
2017-10-30T20:47:43.172Z,9.47
2017-10-30T20:51:10.549Z,7.47
2017-10-30T20:54:36.095Z,10.43
2017-10-30T20:58:02.675Z,5.47
2017-10-30T21:01:28.443Z,6.87
2017-10-30T21:04:54.254Z,8.53
2017-10-30T21:08:21.314Z,9.33
2017-10-30T21:11:48.121Z,9.40
2017-10-30T21:15:14.073Z,14.63
2017-10-30T21:18:39.836Z,7.63
2017-10-30T21:22:05.518Z,9.43
2017-10-30T21:25:30.934Z,6.20
2017-10-30T21:28:57.625Z,9.57
2017-10-30T21:32:23.674Z,10.20
2017-10-30T21:35:49.622Z,9.80
2017-10-30T21:39:15.934Z,6.03
2017-10-30T21:42:41.734Z,7.00
2017-10-30T21:46:09.117Z,7.87
2017-10-30T21:49:36.643Z,8.50
2017-10-30T21:53:08.654Z,3.43
2017-10-30T21:56:36.121Z,7.30
2017-10-30T22:00:08.680Z,13.23
2017-10-30T22:03:34.740Z,3.60
2017-10-30T22:07:00.463Z,6.87
2017-10-30T22:10:28.615Z,7.27
2017-10-30T22:14:02.491Z,4.13
2017-10-30T22:17:33.737Z,4.70
2017-10-30T22:21:03.022Z,5.47
2017-10-30T22:24:31.941Z,4.40
2017-10-30T22:28:00.838Z,7.30
2017-10-30T22:31:26.818Z,5.70
2017-10-30T22:34:54.365Z,6.63
2017-10-30T22:38:22.309Z,5.00
2017-10-30T22:41:47.817Z,6.23
2017-10-30T22:45:13.677Z,3.93
2017-10-30T22:48:39.538Z,4.10
2017-10-30T22:52:05.785Z,6.10
2017-10-30T22:55:35.690Z,5.00
2017-10-30T22:59:04.865Z,7.80
2017-10-30T23:02:33.106Z,5.70
2017-10-30T23:05:59.936Z,3.93
2017-10-30T23:09:28.268Z,2.63
2017-10-30T23:12:53.904Z,4.90
2017-10-30T23:16:22.075Z,3.63
2017-10-30T23:19:51.823Z,2.60
2017-10-30T23:23:20.975Z,4.93
2017-10-30T23:26:50.280Z,3.47
2017-10-30T23:30:16.433Z,4.70
2017-10-30T23:33:48.363Z,2.50
2017-10-30T23:37:15.537Z,2.53
2017-10-30T23:40:41.125Z,3.10
2017-10-30T23:44:07.747Z,4.30
2017-10-30T23:47:33.908Z,3.53
2017-10-30T23:51:03.773Z,4.07
2017-10-30T23:54:29.456Z,4.03
2017-10-30T23:57:55.848Z,3.80
